createdAt,value
2022-12-23T00:00:45.072Z,10.10
2022-12-23T00:03:12.348Z,10.10
2022-12-23T00:05:39.724Z,10.10
2022-12-23T00:08:07.040Z,10.10
2022-12-23T00:10:37.771Z,10.10
2022-12-23T00:13:23.381Z,10.10
2022-12-23T00:15:50.182Z,10.10
2022-12-23T00:18:17.055Z,10.20
2022-12-23T00:20:43.821Z,10.10
2022-12-23T00:23:10.753Z,10.10
2022-12-23T00:25:44.668Z,10.10
2022-12-23T00:28:16.831Z,10.20
2022-12-23T00:30:51.079Z,10.20
2022-12-23T00:33:20.786Z,10.20
2022-12-23T00:35:47.788Z,10.20
2022-12-23T00:38:15.316Z,10.20
2022-12-23T00:41:00.763Z,10.20
2022-12-23T00:43:28.016Z,10.20
2022-12-23T00:45:54.965Z,10.20
2022-12-23T00:48:40.179Z,10.20
2022-12-23T00:51:06.938Z,10.20
2022-12-23T00:53:33.855Z,10.30
2022-12-23T00:56:00.627Z,10.20
2022-12-23T00:58:27.660Z,10.20
2022-12-23T01:01:13.206Z,10.20
2022-12-23T01:03:58.609Z,10.20
2022-12-23T01:06:25.359Z,10.20
2022-12-23T01:08:52.104Z,10.20
2022-12-23T01:11:18.957Z,10.20
2022-12-23T01:13:45.713Z,10.20
2022-12-23T01:16:17.306Z,10.20
2022-12-23T01:18:44.987Z,10.20
2022-12-23T01:21:12.038Z,10.20
2022-12-23T01:23:39.098Z,10.20
2022-12-23T01:26:07.271Z,10.20
2022-12-23T01:28:35.830Z,10.20
2022-12-23T01:31:04.328Z,10.20
2022-12-23T01:33:33.592Z,10.20
2022-12-23T01:36:06.244Z,10.20
2022-12-23T01:38:34.142Z,10.20
2022-12-23T01:41:01.016Z,10.20
2022-12-23T01:43:49.202Z,10.10
2022-12-23T01:46:16.020Z,10.20
2022-12-23T01:48:49.112Z,10.10
2022-12-23T01:51:20.538Z,10.10
2022-12-23T01:53:51.715Z,10.10
2022-12-23T01:56:36.217Z,10.10
2022-12-23T01:59:09.694Z,10.10
2022-12-23T02:01:55.103Z,10.10
2022-12-23T02:04:24.744Z,10.10
2022-12-23T02:07:10.688Z,10.10
2022-12-23T02:09:40.120Z,10.10
2022-12-23T02:12:30.789Z,10.10
2022-12-23T02:15:28.493Z,10.10
2022-12-23T02:18:11.759Z,10.10
2022-12-23T02:21:19.751Z,10.10
2022-12-23T02:24:04.409Z,10.10
2022-12-23T02:26:36.969Z,10.10
2022-12-23T02:29:31.591Z,10.10
2022-12-23T02:32:13.120Z,10.10
2022-12-23T02:35:04.775Z,10.10
2022-12-23T02:37:39.928Z,10.10
2022-12-23T02:40:14.441Z,10.10
2022-12-23T02:42:50.469Z,10.00
2022-12-23T02:45:21.838Z,10.10
2022-12-23T02:47:54.792Z,10.10
2022-12-23T02:50:28.189Z,10.10
2022-12-23T02:53:00.219Z,10.10
2022-12-23T02:55:32.697Z,10.10
2022-12-23T02:58:02.936Z,10.10
2022-12-23T03:00:30.878Z,10.10
2022-12-23T03:02:59.272Z,10.10
2022-12-23T03:05:42.803Z,10.20
2022-12-23T03:08:22.449Z,10.20
2022-12-23T03:11:14.489Z,10.10
2022-12-23T03:13:53.174Z,10.10
2022-12-23T03:16:29.666Z,10.10
2022-12-23T03:19:16.262Z,10.10
2022-12-23T03:22:19.491Z,10.10
2022-12-23T03:25:18.393Z,10.20
2022-12-23T03:28:29.491Z,10.20
2022-12-23T03:30:58.669Z,10.20
2022-12-23T03:33:35.447Z,10.10
2022-12-23T03:36:31.813Z,10.10
2022-12-23T03:39:00.562Z,10.10
2022-12-23T03:41:39.200Z,10.10
2022-12-23T03:44:13.252Z,10.10
2022-12-23T03:46:48.716Z,10.10
2022-12-23T03:49:23.186Z,10.10
2022-12-23T03:52:02.281Z,10.00
2022-12-23T03:54:42.504Z,10.00
2022-12-23T03:57:10.899Z,10.00
2022-12-23T03:59:42.592Z,10.00
2022-12-23T04:02:33.116Z,10.10
2022-12-23T04:05:28.077Z,10.00
2022-12-23T04:08:02.266Z,10.10
2022-12-23T04:10:30.247Z,10.10
2022-12-23T04:12:57.278Z,10.10
2022-12-23T04:15:26.668Z,10.10
2022-12-23T04:17:55.179Z,10.10
2022-12-23T04:20:22.073Z,10.10
2022-12-23T04:22:49.010Z,10.10
2022-12-23T04:25:16.919Z,10.10
2022-12-23T04:27:44.318Z,10.10
2022-12-23T04:30:13.601Z,10.10
2022-12-23T04:32:41.572Z,10.10
2022-12-23T04:35:09.455Z,10.10
2022-12-23T04:37:36.461Z,10.10
2022-12-23T04:40:03.723Z,10.10
2022-12-23T04:42:30.622Z,10.10
2022-12-23T04:44:57.478Z,10.10
2022-12-23T04:47:24.278Z,10.10
2022-12-23T04:49:51.056Z,10.10
2022-12-23T04:52:17.890Z,10.10
2022-12-23T04:54:46.464Z,10.10
2022-12-23T04:57:13.877Z,10.00
2022-12-23T04:59:40.671Z,10.00
2022-12-23T05:02:08.038Z,10.10
2022-12-23T05:04:35.117Z,10.00
2022-12-23T05:07:01.950Z,10.00
2022-12-23T05:09:28.703Z,10.10
2022-12-23T05:11:55.483Z,10.10
2022-12-23T05:14:22.315Z,10.10
2022-12-23T05:16:49.202Z,10.10
2022-12-23T05:19:15.989Z,10.10
2022-12-23T05:21:42.755Z,10.00
2022-12-23T05:24:09.585Z,10.00
2022-12-23T05:26:36.360Z,10.00
2022-12-23T05:29:03.385Z,10.00
2022-12-23T05:31:30.230Z,10.00
2022-12-23T05:34:02.313Z,10.00
2022-12-23T05:36:32.639Z,10.00
2022-12-23T05:38:59.407Z,10.00
2022-12-23T05:41:26.212Z,10.00
2022-12-23T05:43:52.973Z,10.00
2022-12-23T05:46:25.901Z,10.00
2022-12-23T05:48:53.612Z,10.00
2022-12-23T05:51:20.460Z,10.00
2022-12-23T05:53:47.222Z,10.00
2022-12-23T05:56:14.072Z,10.00
2022-12-23T05:58:40.944Z,10.00
2022-12-23T06:01:07.850Z,10.00
2022-12-23T06:03:34.985Z,9.90
2022-12-23T06:06:01.995Z,9.90
2022-12-23T06:08:28.893Z,9.90
2022-12-23T06:10:55.717Z,9.90
2022-12-23T06:13:22.542Z,9.90
2022-12-23T06:15:49.363Z,9.90
2022-12-23T06:18:16.186Z,9.90
2022-12-23T06:20:47.029Z,10.00
2022-12-23T06:23:14.069Z,10.00
2022-12-23T06:25:40.948Z,9.90
2022-12-23T06:28:07.948Z,10.00
2022-12-23T06:30:35.050Z,10.00
2022-12-23T06:33:02.152Z,9.90
2022-12-23T06:35:28.900Z,9.90
2022-12-23T06:37:55.744Z,9.90
2022-12-23T06:40:22.603Z,9.90
2022-12-23T06:42:49.532Z,9.90
2022-12-23T06:45:16.419Z,9.90
2022-12-23T06:47:43.273Z,9.90
2022-12-23T06:50:10.469Z,9.90
2022-12-23T06:52:37.273Z,9.90
2022-12-23T06:55:04.404Z,9.90
2022-12-23T06:57:31.166Z,9.90
2022-12-23T06:59:57.920Z,9.90
2022-12-23T07:02:24.810Z,9.90
2022-12-23T07:04:51.667Z,9.90
2022-12-23T07:07:18.602Z,9.90
2022-12-23T07:09:45.377Z,9.90
2022-12-23T07:12:12.145Z,9.90
2022-12-23T07:14:38.943Z,9.90
2022-12-23T07:17:05.743Z,9.90
2022-12-23T07:19:32.539Z,9.80
2022-12-23T07:21:59.330Z,9.80
2022-12-23T07:24:26.094Z,9.80
2022-12-23T07:26:52.844Z,9.80
2022-12-23T07:29:19.583Z,9.80
2022-12-23T07:31:46.359Z,9.80
2022-12-23T07:34:13.164Z,9.80
2022-12-23T07:36:39.967Z,9.80
2022-12-23T07:39:06.837Z,9.80
2022-12-23T07:41:33.627Z,9.90
2022-12-23T07:44:06.832Z,9.80
2022-12-23T07:46:33.599Z,9.80
2022-12-23T07:49:00.481Z,9.80
2022-12-23T07:51:27.293Z,9.80
2022-12-23T07:53:54.098Z,9.80
2022-12-23T07:56:21.026Z,9.80
2022-12-23T07:58:54.327Z,9.80
2022-12-23T08:01:21.544Z,9.80
2022-12-23T08:03:48.645Z,9.80
2022-12-23T08:06:16.830Z,9.80
2022-12-23T08:08:45.357Z,9.80
2022-12-23T08:11:14.004Z,9.80
2022-12-23T08:13:42.725Z,9.90
2022-12-23T08:16:11.096Z,9.80
2022-12-23T08:18:39.553Z,9.80
2022-12-23T08:21:13.044Z,9.80
2022-12-23T08:23:40.362Z,9.80
2022-12-23T08:26:08.964Z,9.80
2022-12-23T08:28:37.256Z,9.90
2022-12-23T08:31:12.999Z,9.80
2022-12-23T08:33:41.405Z,9.80
2022-12-23T08:36:10.292Z,9.80
2022-12-23T08:38:37.272Z,9.80
2022-12-23T08:41:08.238Z,9.90
2022-12-23T08:43:36.425Z,9.90
2022-12-23T08:46:04.157Z,9.80
2022-12-23T08:48:31.992Z,9.80
2022-12-23T08:51:04.219Z,9.80
2022-12-23T08:53:31.228Z,9.80
2022-12-23T08:56:03.826Z,9.80
2022-12-23T08:58:30.669Z,9.90
2022-12-23T09:00:57.910Z,9.90
2022-12-23T09:03:24.968Z,9.90
2022-12-23T09:05:51.792Z,9.80
2022-12-23T09:08:18.553Z,9.80
2022-12-23T09:10:45.332Z,9.90
2022-12-23T09:13:17.980Z,9.90
2022-12-23T09:15:49.261Z,9.90
2022-12-23T09:18:16.230Z,9.90
2022-12-23T09:20:43.074Z,9.90
2022-12-23T09:23:09.847Z,9.90
2022-12-23T09:25:37.073Z,9.90
2022-12-23T09:28:05.935Z,9.90
2022-12-23T09:30:33.049Z,9.90
2022-12-23T09:32:59.792Z,9.90
2022-12-23T09:35:26.622Z,9.90
2022-12-23T09:37:53.433Z,9.90
2022-12-23T09:40:21.610Z,9.90
2022-12-23T09:43:07.289Z,9.90
2022-12-23T09:45:42.606Z,9.90
2022-12-23T09:48:14.554Z,9.90
2022-12-23T09:50:42.419Z,9.90
2022-12-23T09:53:26.789Z,9.90
2022-12-23T09:56:15.509Z,10.00
2022-12-23T09:58:45.371Z,10.00
2022-12-23T10:01:33.156Z,10.00
2022-12-23T10:04:08.676Z,10.00
2022-12-23T10:06:38.499Z,10.00
2022-12-23T10:09:07.371Z,10.00
2022-12-23T10:11:43.716Z,10.10
2022-12-23T10:14:19.500Z,10.00
2022-12-23T10:16:51.788Z,10.10
2022-12-23T10:19:30.171Z,10.10
2022-12-23T10:22:02.150Z,10.10
2022-12-23T10:24:36.398Z,10.10
2022-12-23T10:27:43.530Z,10.10
2022-12-23T10:30:34.132Z,10.10
2022-12-23T10:33:16.003Z,10.10
2022-12-23T10:36:05.340Z,10.10
2022-12-23T10:39:01.326Z,10.10
2022-12-23T10:41:42.337Z,10.10
2022-12-23T10:44:22.750Z,10.10
2022-12-23T10:46:52.571Z,10.10
2022-12-23T10:49:28.888Z,10.10
2022-12-23T10:51:59.685Z,10.10
2022-12-23T10:54:34.634Z,10.10
2022-12-23T10:57:03.184Z,10.10
2022-12-23T10:59:32.544Z,10.10
2022-12-23T11:02:11.805Z,10.20
2022-12-23T11:04:47.559Z,10.20
2022-12-23T11:07:44.092Z,10.20
2022-12-23T11:10:32.716Z,10.20
2022-12-23T11:13:00.736Z,10.30
2022-12-23T11:15:32.613Z,10.40
2022-12-23T11:18:16.224Z,10.40
2022-12-23T11:24:14.284Z,10.40
2022-12-23T11:26:41.840Z,10.40
2022-12-23T11:29:16.841Z,10.30
2022-12-23T11:31:44.289Z,10.30
2022-12-23T11:34:20.483Z,10.30
2022-12-23T11:37:03.578Z,10.30
2022-12-23T11:39:39.008Z,10.30
2022-12-23T11:42:16.935Z,10.40
2022-12-23T11:44:50.523Z,10.40
2022-12-23T11:47:41.175Z,10.40
2022-12-23T11:50:21.001Z,10.50
2022-12-23T11:52:55.246Z,10.50
2022-12-23T11:55:33.477Z,10.50
2022-12-23T11:58:18.539Z,10.50
2022-12-23T12:01:06.724Z,10.50
2022-12-23T12:03:42.886Z,10.50
2022-12-23T12:06:17.729Z,10.40
2022-12-23T12:08:50.806Z,10.40
2022-12-23T12:11:26.515Z,10.40
2022-12-23T12:14:03.337Z,10.40
2022-12-23T12:16:39.874Z,10.40
2022-12-23T12:19:36.829Z,10.30
2022-12-23T12:22:12.513Z,10.30
2022-12-23T12:24:44.762Z,10.30
2022-12-23T12:27:12.271Z,10.30
2022-12-23T12:29:41.671Z,10.30
2022-12-23T12:32:57.892Z,10.30
2022-12-23T12:35:36.884Z,10.30
2022-12-23T12:38:24.854Z,10.20
2022-12-23T12:41:01.172Z,10.30
2022-12-23T12:43:35.921Z,10.20
2022-12-23T12:46:19.190Z,10.20
2022-12-23T12:48:59.860Z,10.20
2022-12-23T12:51:59.486Z,10.20
2022-12-23T12:54:39.921Z,10.10
2022-12-23T12:57:15.155Z,10.10
2022-12-23T12:59:43.593Z,10.10
2022-12-23T13:02:42.781Z,10.10
2022-12-23T13:05:33.572Z,10.10
2022-12-23T13:08:37.974Z,10.10
2022-12-23T13:11:46.004Z,10.10
2022-12-23T13:14:19.265Z,10.10
2022-12-23T13:17:10.481Z,10.10
2022-12-23T13:19:40.524Z,10.10
2022-12-23T13:22:11.219Z,10.10
2022-12-23T13:24:59.665Z,10.10
2022-12-23T13:28:04.077Z,10.10
2022-12-23T13:30:39.706Z,10.20
2022-12-23T13:33:12.693Z,10.10
2022-12-23T13:36:06.417Z,10.10
2022-12-23T13:39:03.262Z,10.10
2022-12-23T13:41:44.628Z,10.10
2022-12-23T13:44:14.283Z,10.10
2022-12-23T13:46:55.872Z,10.00
2022-12-23T13:49:44.911Z,10.00
2022-12-23T13:52:24.487Z,10.00
2022-12-23T13:55:21.975Z,9.90
2022-12-23T13:58:19.147Z,9.90
2022-12-23T14:01:20.786Z,9.80
2022-12-23T14:03:49.863Z,9.80
2022-12-23T14:06:46.096Z,9.70
2022-12-23T14:09:17.271Z,9.80
2022-12-23T14:11:45.481Z,9.80
2022-12-23T14:14:24.160Z,9.80
2022-12-23T14:17:22.116Z,9.90
2022-12-23T14:20:28.023Z,9.90
2022-12-23T14:23:23.066Z,9.80
2022-12-23T14:26:07.016Z,9.80
2022-12-23T14:28:54.386Z,9.80
2022-12-23T14:31:32.569Z,9.70
2022-12-23T14:34:27.901Z,9.70
2022-12-23T14:37:17.846Z,9.70
2022-12-23T14:39:45.135Z,9.70
2022-12-23T14:42:16.615Z,9.70
2022-12-23T14:44:46.643Z,9.70
2022-12-23T14:47:40.341Z,9.60
2022-12-23T14:50:35.270Z,9.60
2022-12-23T14:53:05.339Z,9.60
2022-12-23T14:55:33.099Z,9.60
2022-12-23T14:58:14.482Z,9.60
2022-12-23T15:00:50.825Z,9.50
2022-12-23T15:03:20.183Z,9.50
2022-12-23T15:05:47.473Z,9.50
2022-12-23T15:08:43.317Z,9.50
2022-12-23T15:11:29.538Z,9.50
2022-12-23T15:14:01.925Z,9.60
2022-12-23T15:16:36.735Z,9.50
2022-12-23T15:19:24.867Z,9.50
2022-12-23T15:22:15.309Z,9.50
2022-12-23T15:24:48.000Z,9.50
2022-12-23T15:27:28.825Z,9.50
2022-12-23T15:29:58.674Z,9.50
2022-12-23T15:32:27.500Z,9.50
2022-12-23T15:35:03.576Z,9.50
2022-12-23T15:37:31.374Z,9.50
2022-12-23T15:40:06.499Z,9.50
2022-12-23T15:42:38.215Z,9.60
2022-12-23T15:45:23.216Z,9.60
2022-12-23T15:47:50.731Z,9.60
2022-12-23T15:50:18.465Z,9.70
2022-12-23T15:52:48.539Z,9.70
2022-12-23T15:55:25.156Z,9.80
2022-12-23T15:57:52.769Z,9.80
2022-12-23T16:00:22.528Z,9.90
2022-12-23T16:03:01.879Z,10.00
2022-12-23T16:05:35.658Z,10.10
2022-12-23T16:08:10.598Z,10.20
2022-12-23T16:10:38.076Z,10.30
2022-12-23T16:13:04.854Z,10.50
2022-12-23T16:15:33.347Z,10.60
2022-12-23T16:18:25.414Z,10.70
2022-12-23T16:21:00.638Z,10.80
2022-12-23T16:23:33.337Z,10.90
2022-12-23T16:26:01.802Z,11.00
2022-12-23T16:28:40.915Z,11.10
2022-12-23T16:31:10.383Z,11.20
2022-12-23T16:33:48.812Z,11.30
2022-12-23T16:36:19.874Z,11.40
2022-12-23T16:38:48.134Z,11.50
2022-12-23T16:41:15.028Z,11.50
2022-12-23T16:43:49.420Z,11.50
2022-12-23T16:46:20.883Z,11.50
2022-12-23T16:48:52.904Z,11.50
2022-12-23T16:51:23.326Z,11.50
2022-12-23T16:53:52.714Z,11.60
2022-12-23T16:56:21.365Z,11.60
2022-12-23T16:58:48.498Z,11.70
2022-12-23T17:01:21.817Z,11.70
2022-12-23T17:03:48.949Z,11.70
2022-12-23T17:06:17.261Z,11.70
2022-12-23T17:08:44.332Z,11.70
2022-12-23T17:11:28.949Z,11.80
2022-12-23T17:14:03.322Z,11.80
2022-12-23T17:16:32.022Z,11.90
2022-12-23T17:18:58.921Z,11.90
2022-12-23T17:21:38.998Z,11.90
2022-12-23T17:24:26.208Z,11.90
2022-12-23T17:26:54.165Z,11.90
2022-12-23T17:29:20.995Z,11.90
2022-12-23T17:31:48.512Z,11.90
2022-12-23T17:34:23.297Z,11.90
2022-12-23T17:36:51.131Z,11.90
2022-12-23T17:39:19.436Z,11.90
2022-12-23T17:41:46.302Z,11.90
2022-12-23T17:44:15.409Z,12.00
2022-12-23T17:46:42.496Z,12.10
2022-12-23T17:49:09.264Z,12.10
2022-12-23T17:51:36.324Z,12.10
2022-12-23T17:54:04.753Z,12.10
2022-12-23T17:56:32.067Z,12.10
2022-12-23T17:58:58.863Z,12.10
2022-12-23T18:01:29.636Z,12.00
2022-12-23T18:03:58.291Z,12.00
2022-12-23T18:06:27.579Z,12.10
2022-12-23T18:08:54.509Z,12.00
2022-12-23T18:11:23.646Z,12.10
2022-12-23T18:13:52.567Z,12.10
2022-12-23T18:16:19.877Z,12.10
2022-12-23T18:18:47.327Z,12.10
2022-12-23T18:21:21.072Z,12.10
2022-12-23T18:23:47.952Z,12.10
2022-12-23T18:26:15.380Z,12.10
2022-12-23T18:28:42.445Z,12.10
2022-12-23T18:31:17.446Z,12.10
2022-12-23T18:33:44.430Z,12.00
2022-12-23T18:36:25.065Z,12.10
2022-12-23T18:38:52.538Z,12.00
2022-12-23T18:41:20.257Z,12.00
2022-12-23T18:43:47.307Z,11.90
2022-12-23T18:46:14.323Z,11.90
2022-12-23T18:48:41.197Z,11.90
2022-12-23T18:51:14.497Z,11.90
2022-12-23T18:53:41.584Z,11.90
2022-12-23T18:56:13.327Z,11.80
2022-12-23T18:58:40.155Z,11.80
2022-12-23T19:01:11.809Z,11.80
2022-12-23T19:03:38.713Z,11.80
2022-12-23T19:06:07.640Z,11.70
2022-12-23T19:08:35.943Z,11.70
2022-12-23T19:11:12.897Z,11.80
2022-12-23T19:13:40.056Z,11.80
2022-12-23T19:16:07.089Z,11.70
2022-12-23T19:18:33.943Z,11.70
2022-12-23T19:21:04.178Z,11.70
2022-12-23T19:23:31.011Z,11.70
2022-12-23T19:25:57.789Z,11.70
2022-12-23T19:28:24.758Z,11.70
2022-12-23T19:30:51.627Z,11.70
2022-12-23T19:33:18.443Z,11.70
2022-12-23T19:35:45.231Z,11.60
2022-12-23T19:38:12.360Z,11.60
2022-12-23T19:40:39.567Z,11.60
2022-12-23T19:43:06.409Z,11.50
2022-12-23T19:45:33.183Z,11.50
2022-12-23T19:47:59.950Z,11.60
2022-12-23T19:50:27.160Z,11.50
2022-12-23T19:52:56.035Z,11.50
2022-12-23T19:55:23.003Z,11.50
2022-12-23T19:57:49.812Z,11.60
2022-12-23T20:00:16.650Z,11.60
2022-12-23T20:02:43.482Z,11.60
2022-12-23T20:05:10.432Z,11.50
2022-12-23T20:07:37.803Z,11.50
2022-12-23T20:10:05.220Z,11.50
2022-12-23T20:12:32.143Z,11.50
2022-12-23T20:14:58.953Z,11.50
2022-12-23T20:17:25.773Z,11.50
2022-12-23T20:19:52.523Z,11.50
2022-12-23T20:22:19.320Z,11.50
2022-12-23T20:24:46.100Z,11.50
2022-12-23T20:27:15.744Z,11.40
2022-12-23T20:29:42.824Z,11.50
2022-12-23T20:32:10.041Z,11.50
2022-12-23T20:34:40.027Z,11.50
2022-12-23T20:37:07.634Z,11.50
2022-12-23T20:39:34.788Z,11.50
2022-12-23T20:42:01.581Z,11.50
2022-12-23T20:44:36.996Z,11.50
2022-12-23T20:47:05.926Z,11.50
2022-12-23T20:49:33.325Z,11.50
2022-12-23T20:52:00.193Z,11.40
2022-12-23T20:54:32.781Z,11.30
2022-12-23T20:57:01.163Z,11.30
2022-12-23T20:59:28.031Z,11.20
2022-12-23T21:01:55.130Z,11.20
2022-12-23T21:04:22.617Z,11.20
2022-12-23T21:06:49.541Z,11.30
2022-12-23T21:09:16.700Z,11.20
2022-12-23T21:11:45.824Z,11.20
2022-12-23T21:14:14.350Z,11.30
2022-12-23T21:16:41.814Z,11.30
2022-12-23T21:19:12.793Z,11.30
2022-12-23T21:21:39.611Z,11.30
2022-12-23T21:24:06.670Z,11.30
2022-12-23T21:26:34.906Z,11.30
2022-12-23T21:29:04.714Z,11.30
2022-12-23T21:31:33.968Z,11.30
2022-12-23T21:34:01.245Z,11.30
2022-12-23T21:36:31.063Z,11.30
2022-12-23T21:38:58.784Z,11.20
2022-12-23T21:41:28.808Z,11.20
2022-12-23T21:44:00.118Z,11.20
2022-12-23T21:46:28.190Z,11.20
2022-12-23T21:48:56.411Z,11.20
2022-12-23T21:51:30.368Z,11.20
2022-12-23T21:54:01.763Z,11.20
2022-12-23T21:56:31.093Z,11.10
2022-12-23T21:59:00.393Z,11.10
2022-12-23T22:01:28.047Z,11.10
2022-12-23T22:03:55.881Z,11.00
2022-12-23T22:06:28.143Z,11.00
2022-12-23T22:08:55.556Z,11.00
2022-12-23T22:11:27.212Z,11.00
2022-12-23T22:13:56.278Z,11.00
2022-12-23T22:16:24.817Z,11.00
2022-12-23T22:18:52.316Z,10.90
2022-12-23T22:21:20.642Z,10.90
2022-12-23T22:23:48.622Z,10.90
2022-12-23T22:26:24.206Z,10.90
2022-12-23T22:28:53.985Z,10.90
2022-12-23T22:31:32.202Z,10.90
2022-12-23T22:33:59.478Z,10.90
2022-12-23T22:36:26.635Z,10.90
2022-12-23T22:38:55.993Z,10.90
2022-12-23T22:41:23.506Z,10.80
2022-12-23T22:43:50.548Z,10.80
2022-12-23T22:46:18.273Z,10.80
2022-12-23T22:48:45.602Z,10.80
2022-12-23T22:51:17.790Z,10.80
2022-12-23T22:53:45.342Z,10.80
2022-12-23T22:56:14.037Z,10.80
2022-12-23T22:58:41.274Z,10.80
2022-12-23T23:01:25.254Z,10.80
2022-12-23T23:03:59.620Z,10.80
2022-12-23T23:06:28.756Z,10.80
2022-12-23T23:08:56.213Z,10.80
2022-12-23T23:11:23.598Z,10.80
2022-12-23T23:13:50.605Z,10.70
2022-12-23T23:16:17.737Z,10.80
2022-12-23T23:18:44.644Z,10.70
2022-12-23T23:21:12.908Z,10.80
2022-12-23T23:23:39.694Z,10.70
2022-12-23T23:26:08.560Z,10.80
2022-12-23T23:28:35.996Z,10.80
2022-12-23T23:31:32.006Z,10.80
2022-12-23T23:33:49.448Z,10.80
2022-12-23T23:36:16.328Z,10.80
2022-12-23T23:38:43.112Z,10.80
2022-12-23T23:41:09.855Z,10.80
2022-12-23T23:43:36.681Z,10.80
2022-12-23T23:46:03.533Z,10.80
2022-12-23T23:48:30.336Z,10.80
2022-12-23T23:51:05.834Z,10.80
2022-12-23T23:53:32.692Z,10.80
2022-12-23T23:56:05.046Z,10.80
2022-12-23T23:58:31.967Z,10.80
